Lykers, New York
Current Conditions -  °F | °C
As of 6:55 AM on Thursday 23 Oct 2014 (Local Time) from KNY0 Reporting Station
Overcast Overcast  
Wind Chill: 43°   Ceiling: 2500
Heat Index: 46°   Visibility: 10mi
Dew Point: 44°   Wind: 5mph
Humidity: 93%   Direction: 280°W
Pressure: 29.87"   Gusts: NA
Location:  42.8384°N, 74.4592°W
Report Text: KNY0 231055Z AUTO 28004KT 10SM BKN025 OVC036 08/07 A2987 RMK AO2 P0003 T00760065
Loading
Personal Weather Stations






























Interactive Weather Map
Tropical Storm Tracking
New forecast layout! Learn more

10-Day Weather Forecast

Advertisements
Track Severe Weather on mobile